Le Mars, IA (51031)

6:20 AM CST on November 23, 2014 (GMT -0600)
Down Town | Change Station
CLOSE
Current Station
Personal Weather Station
Location: LeMars, IA
Elevation: 1220 ft
Nearby Weather Stations

Elev 1220 ft 42.80 °N, 96.16 °W | Updated 7 minutes ago

Overcast
Overcast
50.7 °F
Feels Like 50.7 °F
N
1.0
Wind Variable Wind from SSW
Gusts 6.3 mph

Today
High -- | Low -- °F
--% Chance of Precip.
Yesterday
High -- | Low -- °F
Precip. -- in
7:26 AM 4:55 PM
New Moon, 1% visible
Pressure 29.45 in
Visibility 6.0 miles
Clouds
Dew Point 49 °F
Humidity 95%
Rainfall -999.00 in
Snow Depth Not available.
UV Not available.
Pollen .10 out of 12
Air Quality Not available.
Flu Activity Not available.
METAR KLRJ 231215Z AUTO 20007KT 6SM BR 10/10 A2945 RMK AO2

More Conditions Fewer Conditions

Pressure 29.45 in
Visibility 6.0 miles
Clouds
Dew Point 49 °F
Humidity 95%
Rainfall -999.00 in
Snow Depth Not available.
UV Not available.
Pollen .10 out of 12
Air Quality Not available.
Flu Activity Not available.
METAR KLRJ 231215Z AUTO 20007KT 6SM BR 10/10 A2945 RMK AO2

More Conditions Fewer Conditions

10-Day Weather Forecast

Almanac

Astronomy

Nov. 23, 2014 Rise Set
Actual Time
Civil Twilight
Nautical Twilight
Astronomical Twilight
Moon
Length of Visible Light
Length of Day
Tomorrow will be .
, % of the Moon is Illuminated

Today's Extremes

State Highs State Lows

Community

WunderPhotos

Upload Photos

1,773,050 photos uploaded!

WunderBlogs® & News

Nearby

Air Quality

  Air Quality AQ Index Pollutant
Not available.

Snow Depth

Station Depth Elevation

Earthquake Activity

City Distance Mag. Time & Date
Minimum magnitude displayed is 2.5.

Coastal Water Temperatures

Place Temperature

Nearby Weather Stations